createdAt,value
2023-03-19T00:00:20.027Z,29.590
2023-03-19T00:05:20.232Z,29.590
2023-03-19T00:10:20.209Z,29.590
2023-03-19T00:15:20.086Z,29.591
2023-03-19T00:20:20.154Z,29.591
2023-03-19T00:25:20.276Z,29.591
2023-03-19T00:30:20.177Z,29.591
2023-03-19T00:35:17.120Z,29.591
2023-03-19T00:40:16.954Z,29.591
2023-03-19T00:45:20.159Z,29.597
2023-03-19T00:50:20.096Z,29.597
2023-03-19T00:55:20.267Z,29.597
2023-03-19T01:00:20.360Z,29.595
2023-03-19T01:05:20.152Z,29.595
2023-03-19T01:10:20.220Z,29.595
2023-03-19T01:15:20.170Z,29.592
2023-03-19T01:15:25.862Z,29.592
2023-03-19T01:20:20.390Z,29.592
2023-03-19T01:25:20.217Z,29.592
2023-03-19T01:30:17.058Z,29.592
2023-03-19T01:35:20.203Z,29.592
2023-03-19T01:40:20.361Z,29.592
2023-03-19T01:45:20.389Z,29.592
2023-03-19T01:50:20.183Z,29.592
2023-03-19T01:55:20.128Z,29.592
2023-03-19T02:00:20.434Z,29.591
2023-03-19T02:05:20.313Z,29.591
2023-03-19T02:10:20.268Z,29.591
2023-03-19T02:15:20.266Z,29.591
2023-03-19T02:20:17.174Z,29.591
2023-03-19T02:25:17.227Z,29.591
2023-03-19T02:30:20.535Z,29.595
2023-03-19T02:35:20.291Z,29.595
2023-03-19T02:40:20.375Z,29.595
2023-03-19T02:45:20.267Z,29.604
2023-03-19T02:50:20.287Z,29.604
2023-03-19T02:55:20.391Z,29.604
2023-03-19T03:00:20.645Z,29.606
2023-03-19T03:05:20.452Z,29.606
2023-03-19T03:10:20.404Z,29.606
2023-03-19T03:15:17.316Z,29.611
2023-03-19T03:20:17.296Z,29.611
2023-03-19T03:25:20.446Z,29.611
2023-03-19T03:30:20.384Z,29.613
2023-03-19T03:35:20.541Z,29.613
2023-03-19T03:40:20.463Z,29.613
2023-03-19T03:45:20.392Z,29.616
2023-03-19T03:50:20.425Z,29.616
2023-03-19T03:55:20.499Z,29.616
2023-03-19T04:00:19.770Z,29.622
2023-03-19T04:05:19.749Z,29.622
2023-03-19T04:10:19.825Z,29.622
2023-03-19T04:15:19.794Z,29.628
2023-03-19T04:20:19.834Z,29.628
2023-03-19T04:25:16.704Z,29.628
2023-03-19T04:30:16.814Z,29.633
2023-03-19T04:35:20.017Z,29.633
2023-03-19T04:40:19.837Z,29.633
2023-03-19T04:45:19.961Z,29.632
2023-03-19T04:50:19.847Z,29.632
2023-03-19T04:55:19.856Z,29.632
2023-03-19T05:00:19.905Z,29.631
2023-03-19T05:05:19.889Z,29.631
2023-03-19T05:10:19.936Z,29.631
2023-03-19T05:15:16.854Z,29.623
2023-03-19T05:20:16.761Z,29.623
2023-03-19T05:25:19.875Z,29.623
2023-03-19T05:30:19.916Z,29.621
2023-03-19T05:35:19.990Z,29.621
2023-03-19T05:40:19.987Z,29.621
2023-03-19T05:45:20.000Z,29.622
2023-03-19T05:50:19.984Z,29.622
2023-03-19T05:55:20.039Z,29.622
2023-03-19T06:00:19.950Z,29.623
2023-03-19T06:05:20.075Z,29.623
2023-03-19T06:10:16.981Z,29.623
2023-03-19T06:15:16.897Z,29.627
2023-03-19T06:20:20.013Z,29.627
2023-03-19T06:25:20.092Z,29.627
2023-03-19T06:30:20.010Z,29.625
2023-03-19T06:35:20.063Z,29.625
2023-03-19T06:40:20.119Z,29.625
2023-03-19T06:45:20.048Z,29.637
2023-03-19T06:50:20.048Z,29.637
2023-03-19T06:55:20.052Z,29.637
2023-03-19T07:00:20.194Z,29.636
2023-03-19T07:05:16.903Z,29.636
2023-03-19T07:10:16.875Z,29.636
2023-03-19T07:15:20.201Z,29.638
2023-03-19T07:20:20.132Z,29.638
2023-03-19T07:25:20.123Z,29.638
2023-03-19T07:30:20.140Z,29.642
2023-03-19T07:35:20.223Z,29.642
2023-03-19T07:40:20.174Z,29.642
2023-03-19T07:45:20.271Z,29.638
2023-03-19T07:50:20.209Z,29.638
2023-03-19T07:55:20.249Z,29.638
2023-03-19T08:00:17.048Z,29.639
2023-03-19T08:05:20.260Z,29.639
2023-03-19T08:10:20.125Z,29.639
2023-03-19T08:15:20.272Z,29.643
2023-03-19T08:20:20.186Z,29.643
2023-03-19T08:25:20.277Z,29.643
2023-03-19T08:30:20.275Z,29.650
2023-03-19T08:35:20.348Z,29.650
2023-03-19T08:40:20.389Z,29.650
2023-03-19T08:45:20.348Z,29.652
2023-03-19T08:50:17.415Z,29.652
2023-03-19T08:55:17.424Z,29.652
2023-03-19T09:00:20.431Z,29.661
2023-03-19T09:05:20.402Z,29.661
2023-03-19T09:10:20.336Z,29.661
2023-03-19T09:15:20.452Z,29.668
2023-03-19T09:20:20.421Z,29.668
2023-03-19T09:25:20.416Z,29.668
2023-03-19T09:30:20.404Z,29.674
2023-03-19T09:35:20.471Z,29.674
2023-03-19T09:40:20.424Z,29.674
2023-03-19T09:45:17.390Z,29.685
2023-03-19T09:50:17.493Z,29.685
2023-03-19T09:55:20.742Z,29.685
2023-03-19T10:00:20.502Z,29.698
2023-03-19T10:05:20.547Z,29.698
2023-03-19T10:10:20.836Z,29.698
2023-03-19T10:15:20.622Z,29.699
2023-03-19T10:20:20.663Z,29.699
2023-03-19T10:25:17.588Z,29.699
2023-03-19T10:30:20.583Z,29.702
2023-03-19T10:35:20.602Z,29.702
2023-03-19T10:40:17.524Z,29.702
2023-03-19T10:45:18.623Z,29.712
2023-03-19T10:50:18.702Z,29.712
2023-03-19T10:55:18.778Z,29.712
2023-03-19T11:00:18.616Z,29.728
2023-03-19T11:05:18.637Z,29.728
2023-03-19T11:10:18.618Z,29.728
2023-03-19T11:15:15.648Z,29.734
2023-03-19T11:20:15.456Z,29.734
2023-03-19T11:25:18.734Z,29.734
2023-03-19T11:30:18.769Z,29.743
2023-03-19T11:35:18.792Z,29.743
2023-03-19T11:40:18.760Z,29.743
2023-03-19T11:45:18.743Z,29.745
2023-03-19T11:50:18.826Z,29.745
2023-03-19T11:55:18.813Z,29.745
2023-03-19T12:00:18.785Z,29.749
2023-03-19T12:05:18.876Z,29.749
2023-03-19T12:10:15.743Z,29.749
2023-03-19T12:15:15.714Z,29.756
2023-03-19T12:20:18.770Z,29.756
2023-03-19T12:25:18.854Z,29.756
2023-03-19T12:30:18.745Z,29.758
2023-03-19T12:35:18.966Z,29.758
2023-03-19T12:40:19.001Z,29.758
2023-03-19T12:45:18.847Z,29.758
2023-03-19T12:50:18.898Z,29.758
2023-03-19T12:55:18.933Z,29.758
2023-03-19T13:00:19.904Z,29.754
2023-03-19T13:05:19.959Z,29.754
2023-03-19T13:10:20.043Z,29.754
2023-03-19T13:15:19.985Z,29.757
2023-03-19T13:20:19.943Z,29.757
2023-03-19T13:25:19.978Z,29.757
2023-03-19T13:30:19.967Z,29.760
2023-03-19T13:35:19.981Z,29.760
2023-03-19T13:40:16.869Z,29.760
2023-03-19T13:45:17.115Z,29.757
2023-03-19T13:50:20.135Z,29.757
2023-03-19T13:55:20.052Z,29.757
2023-03-19T14:00:20.179Z,29.750
2023-03-19T14:05:20.016Z,29.750
2023-03-19T14:10:20.194Z,29.750
2023-03-19T14:15:20.198Z,29.748
2023-03-19T14:20:25.845Z,29.748
2023-03-19T14:25:20.071Z,29.748
2023-03-19T14:30:17.006Z,29.747
2023-03-19T14:35:16.938Z,29.747
2023-03-19T14:40:20.172Z,29.747
2023-03-19T14:45:20.206Z,29.743
2023-03-19T14:50:20.097Z,29.743
2023-03-19T14:55:20.049Z,29.743
2023-03-19T15:00:20.134Z,29.734
2023-03-19T15:05:20.191Z,29.734
2023-03-19T15:10:20.165Z,29.734
2023-03-19T15:15:20.160Z,29.735
2023-03-19T15:20:20.236Z,29.735
2023-03-19T15:25:17.068Z,29.735
2023-03-19T15:30:18.822Z,29.738
2023-03-19T15:35:20.437Z,29.738
2023-03-19T15:40:20.207Z,29.738
2023-03-19T15:45:20.355Z,29.736
2023-03-19T15:50:20.220Z,29.736
2023-03-19T15:55:20.351Z,29.736
2023-03-19T16:00:20.236Z,29.729
2023-03-19T16:05:22.891Z,29.729
2023-03-19T16:10:20.773Z,29.729
2023-03-19T16:15:17.192Z,29.732
2023-03-19T16:20:17.156Z,29.732
2023-03-19T16:25:20.298Z,29.732
2023-03-19T16:30:20.392Z,29.734
2023-03-19T16:35:20.360Z,29.734
2023-03-19T16:40:20.330Z,29.734
2023-03-19T16:45:20.359Z,29.735
2023-03-19T16:50:20.370Z,29.735
2023-03-19T16:55:20.453Z,29.735
2023-03-19T17:00:20.419Z,29.734
2023-03-19T17:05:20.472Z,29.734
2023-03-19T17:10:17.275Z,29.734
2023-03-19T17:15:17.260Z,29.733
2023-03-19T17:20:20.637Z,29.733
2023-03-19T17:25:20.339Z,29.733
2023-03-19T17:30:20.406Z,29.739
2023-03-19T17:35:20.432Z,29.739
2023-03-19T17:40:20.537Z,29.739
2023-03-19T17:45:20.451Z,29.747
2023-03-19T17:50:20.485Z,29.747
2023-03-19T17:55:20.589Z,29.747
2023-03-19T18:00:20.482Z,29.742
2023-03-19T18:05:17.411Z,29.742
2023-03-19T18:10:20.563Z,29.742
2023-03-19T18:15:20.796Z,29.744
2023-03-19T18:20:20.540Z,29.744
2023-03-19T18:25:20.607Z,29.744
2023-03-19T18:30:20.508Z,29.739
2023-03-19T18:35:20.608Z,29.739
2023-03-19T18:40:20.606Z,29.739
2023-03-19T18:45:20.661Z,29.747
2023-03-19T18:50:20.611Z,29.747
2023-03-19T18:55:18.588Z,29.747
2023-03-19T19:00:18.782Z,29.748
2023-03-19T19:05:18.800Z,29.748
2023-03-19T19:10:18.623Z,29.748
2023-03-19T19:15:18.654Z,29.747
2023-03-19T19:20:18.732Z,29.747
2023-03-19T19:25:18.676Z,29.747
2023-03-19T19:30:18.654Z,29.748
2023-03-19T19:35:15.519Z,29.748
2023-03-19T19:40:15.557Z,29.748
2023-03-19T19:45:18.837Z,29.749
2023-03-19T19:50:18.711Z,29.749
2023-03-19T19:55:18.811Z,29.749
2023-03-19T20:00:18.795Z,29.757
2023-03-19T20:05:18.637Z,29.757
2023-03-19T20:10:18.778Z,29.757
2023-03-19T20:15:18.788Z,29.764
2023-03-19T20:20:18.788Z,29.764
2023-03-19T20:25:18.794Z,29.764
2023-03-19T20:30:15.756Z,29.763
2023-03-19T20:35:15.660Z,29.763
2023-03-19T20:40:18.905Z,29.763
2023-03-19T20:45:18.835Z,29.771
2023-03-19T20:50:18.759Z,29.771
2023-03-19T20:55:18.727Z,29.771
2023-03-19T21:00:19.015Z,29.768
2023-03-19T21:05:18.868Z,29.768
2023-03-19T21:10:19.099Z,29.768
2023-03-19T21:15:18.885Z,29.781
2023-03-19T21:20:18.949Z,29.781
2023-03-19T21:25:15.755Z,29.781
2023-03-19T21:30:18.940Z,29.781
2023-03-19T21:35:19.094Z,29.781
2023-03-19T21:40:18.877Z,29.781
2023-03-19T21:45:19.091Z,29.794
2023-03-19T21:50:18.953Z,29.794
2023-03-19T21:55:18.933Z,29.794
2023-03-19T22:00:18.915Z,29.799
2023-03-19T22:05:19.012Z,29.799
2023-03-19T22:10:18.921Z,29.799
2023-03-19T22:15:15.959Z,29.801
2023-03-19T22:20:15.815Z,29.801
2023-03-19T22:25:19.062Z,29.801
2023-03-19T22:30:19.145Z,29.809
2023-03-19T22:35:19.037Z,29.809
2023-03-19T22:40:19.114Z,29.809
2023-03-19T22:45:19.046Z,29.817
2023-03-19T22:50:19.049Z,29.817
2023-03-19T22:55:19.132Z,29.817
2023-03-19T23:00:19.098Z,29.829
2023-03-19T23:05:19.001Z,29.829
2023-03-19T23:10:16.080Z,29.829
2023-03-19T23:15:17.103Z,29.842
2023-03-19T23:20:19.166Z,29.842
2023-03-19T23:25:19.165Z,29.842
2023-03-19T23:30:19.114Z,29.854
2023-03-19T23:35:19.146Z,29.854
2023-03-19T23:40:19.157Z,29.854
2023-03-19T23:45:19.294Z,29.872
2023-03-19T23:50:19.173Z,29.872
2023-03-19T23:55:19.236Z,29.872
